sensor_id;sensor_type;location;lat;lon;timestamp;pressure;altitude;pressure_sealevel;temperature;humidity
76594;BME280;65482;50.240;14.302;2023-08-08T00:00:47;99465.38;;;13.33;67.31
76594;BME280;65482;50.240;14.302;2023-08-08T00:03:31;99464.78;;;13.23;67.53
76594;BME280;65482;50.240;14.302;2023-08-08T00:05:57;99460.47;;;13.22;67.85
76594;BME280;65482;50.240;14.302;2023-08-08T00:08:22;99465.75;;;13.22;67.89
76594;BME280;65482;50.240;14.302;2023-08-08T00:10:48;99456.69;;;13.17;68.26
76594;BME280;65482;50.240;14.302;2023-08-08T00:13:13;99455.78;;;13.09;68.16
76594;BME280;65482;50.240;14.302;2023-08-08T00:15:39;99446.19;;;13.08;68.71
76594;BME280;65482;50.240;14.302;2023-08-08T00:18:05;99453.84;;;13.03;69.02
76594;BME280;65482;50.240;14.302;2023-08-08T00:20:30;99455.38;;;12.98;69.30
76594;BME280;65482;50.240;14.302;2023-08-08T00:22:56;99450.25;;;12.96;69.27
76594;BME280;65482;50.240;14.302;2023-08-08T00:25:21;99446.31;;;12.92;69.56
76594;BME280;65482;50.240;14.302;2023-08-08T00:27:47;99445.38;;;12.85;69.40
76594;BME280;65482;50.240;14.302;2023-08-08T00:30:13;99444.53;;;12.84;69.70
76594;BME280;65482;50.240;14.302;2023-08-08T00:32:39;99441.25;;;12.82;69.50
76594;BME280;65482;50.240;14.302;2023-08-08T00:35:05;99439.63;;;12.81;69.64
76594;BME280;65482;50.240;14.302;2023-08-08T00:37:30;99440.13;;;12.77;69.39
76594;BME280;65482;50.240;14.302;2023-08-08T00:39:56;99442.13;;;12.74;69.55
76594;BME280;65482;50.240;14.302;2023-08-08T00:42:21;99447.16;;;12.69;69.82
76594;BME280;65482;50.240;14.302;2023-08-08T00:44:47;99455.75;;;12.63;69.92
76594;BME280;65482;50.240;14.302;2023-08-08T00:47:12;99450.84;;;12.60;69.87
76594;BME280;65482;50.240;14.302;2023-08-08T00:49:38;99456.00;;;12.53;70.44
76594;BME280;65482;50.240;14.302;2023-08-08T00:52:06;99451.06;;;12.50;70.47
76594;BME280;65482;50.240;14.302;2023-08-08T00:54:31;99446.78;;;12.49;70.42
76594;BME280;65482;50.240;14.302;2023-08-08T00:56:57;99443.47;;;12.47;70.67
76594;BME280;65482;50.240;14.302;2023-08-08T00:59:23;99435.53;;;12.47;70.85
76594;BME280;65482;50.240;14.302;2023-08-08T01:01:48;99438.69;;;12.43;70.90
76594;BME280;65482;50.240;14.302;2023-08-08T01:04:15;99443.34;;;12.41;71.12
76594;BME280;65482;50.240;14.302;2023-08-08T01:06:57;99448.34;;;12.36;71.12
76594;BME280;65482;50.240;14.302;2023-08-08T01:09:27;99440.41;;;12.36;71.02
76594;BME280;65482;50.240;14.302;2023-08-08T01:11:55;99443.03;;;12.36;71.14
76594;BME280;65482;50.240;14.302;2023-08-08T01:14:21;99449.31;;;12.34;71.51
76594;BME280;65482;50.240;14.302;2023-08-08T01:16:50;99447.38;;;12.28;71.81
76594;BME280;65482;50.240;14.302;2023-08-08T01:19:25;99445.91;;;12.26;71.54
76594;BME280;65482;50.240;14.302;2023-08-08T01:21:53;99450.34;;;12.25;71.50
76594;BME280;65482;50.240;14.302;2023-08-08T01:24:23;99446.06;;;12.24;71.41
76594;BME280;65482;50.240;14.302;2023-08-08T01:26:49;99450.34;;;12.25;71.60
76594;BME280;65482;50.240;14.302;2023-08-08T01:29:15;99449.91;;;12.13;71.81
76594;BME280;65482;50.240;14.302;2023-08-08T01:31:40;99448.09;;;12.14;71.79
76594;BME280;65482;50.240;14.302;2023-08-08T01:34:07;99450.59;;;12.16;71.72
76594;BME280;65482;50.240;14.302;2023-08-08T01:36:38;99438.34;;;12.14;71.69
76594;BME280;65482;50.240;14.302;2023-08-08T01:39:11;99448.28;;;12.12;71.80
76594;BME280;65482;50.240;14.302;2023-08-08T01:41:39;99442.50;;;12.09;71.51
76594;BME280;65482;50.240;14.302;2023-08-08T01:44:05;99439.03;;;12.08;71.97
76594;BME280;65482;50.240;14.302;2023-08-08T01:46:32;99429.28;;;12.09;71.69
76594;BME280;65482;50.240;14.302;2023-08-08T01:48:59;99416.72;;;12.11;71.22
76594;BME280;65482;50.240;14.302;2023-08-08T01:51:25;99423.34;;;12.07;71.27
76594;BME280;65482;50.240;14.302;2023-08-08T01:53:52;99428.63;;;12.07;71.61
76594;BME280;65482;50.240;14.302;2023-08-08T01:56:17;99432.44;;;12.04;71.51
76594;BME280;65482;50.240;14.302;2023-08-08T01:58:43;99433.09;;;12.06;71.11
76594;BME280;65482;50.240;14.302;2023-08-08T02:01:08;99432.13;;;11.99;71.56
76594;BME280;65482;50.240;14.302;2023-08-08T02:03:34;99425.19;;;11.98;71.60
76594;BME280;65482;50.240;14.302;2023-08-08T02:05:59;99422.06;;;11.94;71.45
76594;BME280;65482;50.240;14.302;2023-08-08T02:08:25;99428.69;;;11.90;71.57
76594;BME280;65482;50.240;14.302;2023-08-08T02:10:50;99430.66;;;11.88;71.95
76594;BME280;65482;50.240;14.302;2023-08-08T02:13:16;99433.47;;;11.87;72.03
76594;BME280;65482;50.240;14.302;2023-08-08T02:15:41;99436.28;;;11.85;72.02
76594;BME280;65482;50.240;14.302;2023-08-08T02:18:07;99430.53;;;11.82;72.41
76594;BME280;65482;50.240;14.302;2023-08-08T02:20:34;99437.78;;;11.80;72.55
76594;BME280;65482;50.240;14.302;2023-08-08T02:22:59;99436.66;;;11.74;72.38
76594;BME280;65482;50.240;14.302;2023-08-08T02:25:25;99430.72;;;11.72;72.39
76594;BME280;65482;50.240;14.302;2023-08-08T02:27:51;99428.75;;;11.66;72.53
76594;BME280;65482;50.240;14.302;2023-08-08T02:30:16;99438.63;;;11.64;72.83
76594;BME280;65482;50.240;14.302;2023-08-08T02:32:42;99432.25;;;11.58;72.82
76594;BME280;65482;50.240;14.302;2023-08-08T02:35:08;99424.63;;;11.55;72.79
76594;BME280;65482;50.240;14.302;2023-08-08T02:37:33;99421.03;;;11.56;73.22
76594;BME280;65482;50.240;14.302;2023-08-08T02:39:59;99424.63;;;11.55;73.46
76594;BME280;65482;50.240;14.302;2023-08-08T02:42:24;99422.50;;;11.59;72.74
76594;BME280;65482;50.240;14.302;2023-08-08T02:44:50;99422.78;;;11.64;72.49
76594;BME280;65482;50.240;14.302;2023-08-08T02:47:16;99424.78;;;11.62;72.03
76594;BME280;65482;50.240;14.302;2023-08-08T02:49:41;99423.47;;;11.66;72.23
76594;BME280;65482;50.240;14.302;2023-08-08T02:52:07;99420.84;;;11.66;71.75
76594;BME280;65482;50.240;14.302;2023-08-08T02:54:33;99421.28;;;11.69;71.93
76594;BME280;65482;50.240;14.302;2023-08-08T02:56:58;99421.94;;;11.71;71.75
76594;BME280;65482;50.240;14.302;2023-08-08T02:59:24;99428.38;;;11.77;71.34
76594;BME280;65482;50.240;14.302;2023-08-08T03:01:49;99422.75;;;11.80;71.20
76594;BME280;65482;50.240;14.302;2023-08-08T03:04:15;99424.88;;;11.85;70.78
76594;BME280;65482;50.240;14.302;2023-08-08T03:06:41;99424.41;;;11.81;70.86
76594;BME280;65482;50.240;14.302;2023-08-08T03:09:06;99421.25;;;11.78;70.91
76594;BME280;65482;50.240;14.302;2023-08-08T03:11:32;99413.97;;;11.88;70.65
76594;BME280;65482;50.240;14.302;2023-08-08T03:13:57;99419.75;;;11.91;70.42
76594;BME280;65482;50.240;14.302;2023-08-08T03:16:23;99435.94;;;11.97;70.41
76594;BME280;65482;50.240;14.302;2023-08-08T03:18:49;99430.97;;;12.02;69.84
76594;BME280;65482;50.240;14.302;2023-08-08T03:21:14;99431.78;;;12.02;69.90
76594;BME280;65482;50.240;14.302;2023-08-08T03:23:40;99428.97;;;12.04;70.21
76594;BME280;65482;50.240;14.302;2023-08-08T03:26:06;99433.44;;;12.03;69.57
76594;BME280;65482;50.240;14.302;2023-08-08T03:28:31;99436.06;;;12.03;69.56
76594;BME280;65482;50.240;14.302;2023-08-08T03:30:57;99431.09;;;12.08;69.49
76594;BME280;65482;50.240;14.302;2023-08-08T03:33:22;99436.22;;;12.10;69.34
76594;BME280;65482;50.240;14.302;2023-08-08T03:35:48;99430.91;;;12.18;69.30
76594;BME280;65482;50.240;14.302;2023-08-08T03:38:13;99424.91;;;12.24;68.88
76594;BME280;65482;50.240;14.302;2023-08-08T03:40:39;99428.84;;;12.28;68.50
76594;BME280;65482;50.240;14.302;2023-08-08T03:43:05;99431.34;;;12.30;68.62
76594;BME280;65482;50.240;14.302;2023-08-08T03:45:31;99438.09;;;12.32;68.27
76594;BME280;65482;50.240;14.302;2023-08-08T03:47:57;99438.56;;;12.36;68.34
76594;BME280;65482;50.240;14.302;2023-08-08T03:50:22;99434.75;;;12.39;68.00
76594;BME280;65482;50.240;14.302;2023-08-08T03:52:48;99442.03;;;12.37;68.23
76594;BME280;65482;50.240;14.302;2023-08-08T03:55:13;99438.22;;;12.39;68.10
76594;BME280;65482;50.240;14.302;2023-08-08T03:57:39;99440.53;;;12.42;68.17
76594;BME280;65482;50.240;14.302;2023-08-08T04:00:05;99442.81;;;12.45;67.89
76594;BME280;65482;50.240;14.302;2023-08-08T04:02:33;99441.81;;;12.46;67.89
76594;BME280;65482;50.240;14.302;2023-08-08T04:04:59;99436.53;;;12.46;68.27
76594;BME280;65482;50.240;14.302;2023-08-08T04:07:24;99438.34;;;12.46;68.30
76594;BME280;65482;50.240;14.302;2023-08-08T04:09:50;99438.31;;;12.54;67.91
76594;BME280;65482;50.240;14.302;2023-08-08T04:12:15;99436.72;;;12.68;67.54
76594;BME280;65482;50.240;14.302;2023-08-08T04:14:41;99445.56;;;12.83;67.22
76594;BME280;65482;50.240;14.302;2023-08-08T04:17:06;99454.44;;;12.90;66.82
76594;BME280;65482;50.240;14.302;2023-08-08T04:19:32;99450.06;;;12.98;66.46
76594;BME280;65482;50.240;14.302;2023-08-08T04:21:58;99456.19;;;12.98;66.31
76594;BME280;65482;50.240;14.302;2023-08-08T04:24:24;99456.84;;;13.00;66.49
76594;BME280;65482;50.240;14.302;2023-08-08T04:26:50;99452.66;;;13.06;66.33
76594;BME280;65482;50.240;14.302;2023-08-08T04:29:18;99466.84;;;13.13;66.25
76594;BME280;65482;50.240;14.302;2023-08-08T04:31:43;99465.50;;;13.17;66.47
76594;BME280;65482;50.240;14.302;2023-08-08T04:34:09;99464.47;;;13.18;66.39
76594;BME280;65482;50.240;14.302;2023-08-08T04:36:35;99461.66;;;13.20;66.47
76594;BME280;65482;50.240;14.302;2023-08-08T04:39:00;99469.22;;;13.31;66.35
76594;BME280;65482;50.240;14.302;2023-08-08T04:41:26;99463.47;;;13.42;66.09
76594;BME280;65482;50.240;14.302;2023-08-08T04:43:51;99458.63;;;13.46;65.86
76594;BME280;65482;50.240;14.302;2023-08-08T04:46:18;99461.38;;;13.52;65.94
76594;BME280;65482;50.240;14.302;2023-08-08T04:48:43;99468.50;;;13.52;65.63
76594;BME280;65482;50.240;14.302;2023-08-08T04:51:09;99460.94;;;13.49;66.17
76594;BME280;65482;50.240;14.302;2023-08-08T04:53:35;99455.25;;;13.37;66.35
76594;BME280;65482;50.240;14.302;2023-08-08T04:56:00;99458.16;;;13.42;66.40
76594;BME280;65482;50.240;14.302;2023-08-08T04:58:26;99453.69;;;13.43;66.55
76594;BME280;65482;50.240;14.302;2023-08-08T05:00:51;99455.50;;;13.42;66.39
76594;BME280;65482;50.240;14.302;2023-08-08T05:03:17;99448.19;;;13.44;66.36
76594;BME280;65482;50.240;14.302;2023-08-08T05:05:43;99447.22;;;13.45;66.75
76594;BME280;65482;50.240;14.302;2023-08-08T05:08:11;99452.78;;;13.50;66.59
76594;BME280;65482;50.240;14.302;2023-08-08T05:10:36;99452.78;;;13.50;66.27
76594;BME280;65482;50.240;14.302;2023-08-08T05:13:02;99450.03;;;13.44;66.82
76594;BME280;65482;50.240;14.302;2023-08-08T05:15:27;99448.47;;;13.35;66.95
76594;BME280;65482;50.240;14.302;2023-08-08T05:17:53;99449.53;;;13.25;67.26
76594;BME280;65482;50.240;14.302;2023-08-08T05:20:20;99452.47;;;13.30;67.31
76594;BME280;65482;50.240;14.302;2023-08-08T05:22:47;99452.47;;;13.30;67.05
76594;BME280;65482;50.240;14.302;2023-08-08T05:25:12;99452.13;;;13.33;67.36
76594;BME280;65482;50.240;14.302;2023-08-08T05:27:38;99451.94;;;13.35;67.01
76594;BME280;65482;50.240;14.302;2023-08-08T05:30:04;99458.91;;;13.51;66.64
76594;BME280;65482;50.240;14.302;2023-08-08T05:32:30;99458.56;;;13.69;66.48
76594;BME280;65482;50.240;14.302;2023-08-08T05:34:56;99452.63;;;13.82;65.92
76594;BME280;65482;50.240;14.302;2023-08-08T05:37:23;99454.16;;;14.06;65.47
76594;BME280;65482;50.240;14.302;2023-08-08T05:39:49;99453.47;;;14.33;64.49
76594;BME280;65482;50.240;14.302;2023-08-08T05:42:15;99447.53;;;14.46;64.31
76594;BME280;65482;50.240;14.302;2023-08-08T05:44:40;99441.47;;;14.52;63.51
76594;BME280;65482;50.240;14.302;2023-08-08T05:47:10;99441.56;;;14.59;63.66
76594;BME280;65482;50.240;14.302;2023-08-08T05:49:36;99451.06;;;14.68;63.35
76594;BME280;65482;50.240;14.302;2023-08-08T05:52:02;99444.66;;;14.63;63.42
76594;BME280;65482;50.240;14.302;2023-08-08T05:54:28;99449.56;;;14.66;63.18
76594;BME280;65482;50.240;14.302;2023-08-08T05:56:54;99450.72;;;14.57;63.31
76594;BME280;65482;50.240;14.302;2023-08-08T05:59:19;99450.88;;;14.55;63.38
76594;BME280;65482;50.240;14.302;2023-08-08T06:01:45;99450.72;;;14.57;63.68
76594;BME280;65482;50.240;14.302;2023-08-08T06:04:12;99462.50;;;14.69;62.97
76594;BME280;65482;50.240;14.302;2023-08-08T06:06:38;99459.34;;;14.80;62.92
76594;BME280;65482;50.240;14.302;2023-08-08T06:09:03;99460.84;;;14.89;62.74
76594;BME280;65482;50.240;14.302;2023-08-08T06:11:29;99459.06;;;15.18;62.47
76594;BME280;65482;50.240;14.302;2023-08-08T06:13:54;99459.56;;;15.57;61.07
76594;BME280;65482;50.240;14.302;2023-08-08T06:16:21;99463.63;;;15.81;60.57
76594;BME280;65482;50.240;14.302;2023-08-08T06:18:46;99465.78;;;15.99;59.48
76594;BME280;65482;50.240;14.302;2023-08-08T06:21:12;99459.56;;;16.26;59.39
76594;BME280;65482;50.240;14.302;2023-08-08T06:23:38;99461.53;;;16.59;58.12
76594;BME280;65482;50.240;14.302;2023-08-08T06:26:03;99454.13;;;16.55;57.77
76594;BME280;65482;50.240;14.302;2023-08-08T06:28:29;99449.66;;;16.68;57.38
76594;BME280;65482;50.240;14.302;2023-08-08T06:30:57;99452.19;;;16.90;56.59
76594;BME280;65482;50.240;14.302;2023-08-08T06:33:23;99461.41;;;17.01;55.72
76594;BME280;65482;50.240;14.302;2023-08-08T06:35:49;99466.13;;;17.19;55.55
76594;BME280;65482;50.240;14.302;2023-08-08T06:38:15;99471.88;;;17.36;55.33
76594;BME280;65482;50.240;14.302;2023-08-08T06:40:40;99462.44;;;17.53;54.49
76594;BME280;65482;50.240;14.302;2023-08-08T06:43:06;99466.72;;;17.67;54.34
76594;BME280;65482;50.240;14.302;2023-08-08T06:45:32;99467.53;;;17.88;53.82
76594;BME280;65482;50.240;14.302;2023-08-08T06:47:57;99467.38;;;18.35;51.10
76594;BME280;65482;50.240;14.302;2023-08-08T06:50:23;99464.47;;;19.13;49.31
76594;BME280;65482;50.240;14.302;2023-08-08T06:52:51;99462.91;;;20.48;46.63
76594;BME280;65482;50.240;14.302;2023-08-08T06:55:17;99473.91;;;21.78;43.87
76594;BME280;65482;50.240;14.302;2023-08-08T06:57:43;99465.69;;;22.08;42.22
76594;BME280;65482;50.240;14.302;2023-08-08T07:00:09;99463.22;;;22.30;41.59
76594;BME280;65482;50.240;14.302;2023-08-08T07:02:37;99461.81;;;22.16;41.51
76594;BME280;65482;50.240;14.302;2023-08-08T07:05:03;99463.50;;;21.93;42.21
76594;BME280;65482;50.240;14.302;2023-08-08T07:07:29;99455.97;;;21.67;43.10
76594;BME280;65482;50.240;14.302;2023-08-08T07:09:58;99458.75;;;21.83;42.63
76594;BME280;65482;50.240;14.302;2023-08-08T07:12:23;99460.84;;;21.81;43.10
76594;BME280;65482;50.240;14.302;2023-08-08T07:14:49;99451.88;;;21.64;42.88
76594;BME280;65482;50.240;14.302;2023-08-08T07:17:14;99446.84;;;21.44;42.86
76594;BME280;65482;50.240;14.302;2023-08-08T07:19:40;99443.31;;;21.32;43.63
76594;BME280;65482;50.240;14.302;2023-08-08T07:22:06;99451.56;;;21.06;43.72
76594;BME280;65482;50.240;14.302;2023-08-08T07:24:32;99448.69;;;20.66;44.99
76594;BME280;65482;50.240;14.302;2023-08-08T07:26:58;99448.44;;;20.37;45.96
76594;BME280;65482;50.240;14.302;2023-08-08T07:29:24;99451.13;;;20.00;46.47
76594;BME280;65482;50.240;14.302;2023-08-08T07:31:52;99452.47;;;19.73;46.86
76594;BME280;65482;50.240;14.302;2023-08-08T07:34:17;99451.34;;;19.55;47.31
76594;BME280;65482;50.240;14.302;2023-08-08T07:36:43;99452.34;;;19.36;47.86
76594;BME280;65482;50.240;14.302;2023-08-08T07:39:08;99445.75;;;19.13;48.33
76594;BME280;65482;50.240;14.302;2023-08-08T07:41:34;99451.72;;;19.15;48.12
76594;BME280;65482;50.240;14.302;2023-08-08T07:44:00;99443.03;;;19.63;47.39
76594;BME280;65482;50.240;14.302;2023-08-08T07:46:25;99441.75;;;20.58;45.57
76594;BME280;65482;50.240;14.302;2023-08-08T07:48:51;99448.94;;;21.42;43.25
76594;BME280;65482;50.240;14.302;2023-08-08T07:51:17;99454.91;;;21.68;42.92
76594;BME280;65482;50.240;14.302;2023-08-08T07:53:42;99443.28;;;23.17;40.98
76594;BME280;65482;50.240;14.302;2023-08-08T07:56:08;99443.13;;;25.00;37.90
76594;BME280;65482;50.240;14.302;2023-08-08T07:58:33;99460.09;;;26.13;35.48
76594;BME280;65482;50.240;14.302;2023-08-08T08:00:59;99449.66;;;25.37;35.48
76594;BME280;65482;50.240;14.302;2023-08-08T08:03:26;99453.53;;;25.56;36.29
76594;BME280;65482;50.240;14.302;2023-08-08T08:05:52;99443.47;;;25.09;35.84
76594;BME280;65482;50.240;14.302;2023-08-08T08:08:18;99448.19;;;24.15;38.41
76594;BME280;65482;50.240;14.302;2023-08-08T08:10:44;99439.97;;;23.66;39.42
76594;BME280;65482;50.240;14.302;2023-08-08T08:13:11;99442.72;;;24.32;37.92
76594;BME280;65482;50.240;14.302;2023-08-08T08:15:37;99444.53;;;25.08;35.95
76594;BME280;65482;50.240;14.302;2023-08-08T08:18:03;99446.63;;;25.76;34.53
76594;BME280;65482;50.240;14.302;2023-08-08T08:20:29;99439.13;;;24.76;36.04
76594;BME280;65482;50.240;14.302;2023-08-08T08:22:55;99438.22;;;23.94;37.32
76594;BME280;65482;50.240;14.302;2023-08-08T08:25:20;99433.09;;;23.02;39.42
76594;BME280;65482;50.240;14.302;2023-08-08T08:27:46;99434.34;;;22.66;40.08
76594;BME280;65482;50.240;14.302;2023-08-08T08:30:12;99429.00;;;23.00;39.62
76594;BME280;65482;50.240;14.302;2023-08-08T08:32:40;99433.38;;;22.89;40.21
76594;BME280;65482;50.240;14.302;2023-08-08T08:35:06;99432.69;;;22.65;40.29
76594;BME280;65482;50.240;14.302;2023-08-08T08:37:32;99431.09;;;22.23;41.16
76594;BME280;65482;50.240;14.302;2023-08-08T08:39:58;99429.00;;;22.14;41.34
76594;BME280;65482;50.240;14.302;2023-08-08T08:42:24;99423.22;;;21.93;41.46
76594;BME280;65482;50.240;14.302;2023-08-08T08:44:50;99435.16;;;22.38;40.00
76594;BME280;65482;50.240;14.302;2023-08-08T08:47:19;99428.88;;;22.32;39.33
76594;BME280;65482;50.240;14.302;2023-08-08T08:49:45;99432.47;;;22.38;39.07
76594;BME280;65482;50.240;14.302;2023-08-08T08:52:12;99426.34;;;22.54;38.81
76594;BME280;65482;50.240;14.302;2023-08-08T08:54:38;99426.84;;;22.68;37.62
76594;BME280;65482;50.240;14.302;2023-08-08T08:57:04;99433.69;;;22.76;37.76
76594;BME280;65482;50.240;14.302;2023-08-08T08:59:29;99426.94;;;22.73;37.09
76594;BME280;65482;50.240;14.302;2023-08-08T09:01:56;99421.38;;;22.63;37.99
76594;BME280;65482;50.240;14.302;2023-08-08T09:04:22;99425.13;;;22.33;37.78
76594;BME280;65482;50.240;14.302;2023-08-08T09:06:49;99422.69;;;22.20;38.38
76594;BME280;65482;50.240;14.302;2023-08-08T09:09:15;99426.44;;;22.31;38.18
76594;BME280;65482;50.240;14.302;2023-08-08T09:11:45;99421.84;;;22.60;38.06
76594;BME280;65482;50.240;14.302;2023-08-08T09:14:22;99432.28;;;22.56;37.08
76594;BME280;65482;50.240;14.302;2023-08-08T09:16:49;99431.50;;;22.03;37.95
76594;BME280;65482;50.240;14.302;2023-08-08T09:19:15;99421.53;;;21.75;39.17
76594;BME280;65482;50.240;14.302;2023-08-08T09:21:43;99416.53;;;21.43;39.68
76594;BME280;65482;50.240;14.302;2023-08-08T09:24:09;99422.22;;;21.23;40.66
76594;BME280;65482;50.240;14.302;2023-08-08T09:26:35;99422.03;;;20.95;40.93
76594;BME280;65482;50.240;14.302;2023-08-08T09:29:01;99410.19;;;21.14;40.77
76594;BME280;65482;50.240;14.302;2023-08-08T09:31:27;99413.34;;;21.23;40.67
76594;BME280;65482;50.240;14.302;2023-08-08T09:33:58;99415.91;;;21.30;41.10
76594;BME280;65482;50.240;14.302;2023-08-08T09:36:23;99399.47;;;21.14;40.99
76594;BME280;65482;50.240;14.302;2023-08-08T09:38:49;99405.38;;;21.04;40.83
76594;BME280;65482;50.240;14.302;2023-08-08T09:41:15;99416.22;;;20.86;40.52
76594;BME280;65482;50.240;14.302;2023-08-08T09:43:44;99408.28;;;20.79;40.33
76594;BME280;65482;50.240;14.302;2023-08-08T09:46:10;99406.53;;;20.97;40.74
76594;BME280;65482;50.240;14.302;2023-08-08T09:48:35;99403.66;;;21.22;41.09
76594;BME280;65482;50.240;14.302;2023-08-08T09:51:02;99398.84;;;22.23;39.18
76594;BME280;65482;50.240;14.302;2023-08-08T09:53:29;99395.41;;;23.19;37.81
76594;BME280;65482;50.240;14.302;2023-08-08T09:55:56;99389.41;;;23.90;36.01
76594;BME280;65482;50.240;14.302;2023-08-08T09:58:23;99384.59;;;23.75;34.16
76594;BME280;65482;50.240;14.302;2023-08-08T10:00:50;99391.00;;;23.69;35.13
76594;BME280;65482;50.240;14.302;2023-08-08T10:03:16;99386.34;;;23.81;34.47
76594;BME280;65482;50.240;14.302;2023-08-08T10:05:43;99380.53;;;23.90;34.56
76594;BME280;65482;50.240;14.302;2023-08-08T10:08:09;99385.47;;;23.98;34.44
76594;BME280;65482;50.240;14.302;2023-08-08T10:10:35;99380.41;;;23.62;34.23
76594;BME280;65482;50.240;14.302;2023-08-08T10:13:02;99381.59;;;23.50;34.46
76594;BME280;65482;50.240;14.302;2023-08-08T10:15:28;99387.09;;;23.38;34.68
76594;BME280;65482;50.240;14.302;2023-08-08T10:17:56;99384.59;;;23.14;35.13
76594;BME280;65482;50.240;14.302;2023-08-08T10:20:24;99374.22;;;22.89;34.51
76594;BME280;65482;50.240;14.302;2023-08-08T10:22:51;99382.28;;;22.89;34.39
76594;BME280;65482;50.240;14.302;2023-08-08T10:25:24;99374.97;;;22.84;34.09
76594;BME280;65482;50.240;14.302;2023-08-08T10:28:05;99376.47;;;22.63;33.79
76594;BME280;65482;50.240;14.302;2023-08-08T10:30:45;99367.50;;;22.58;34.45
76594;BME280;65482;50.240;14.302;2023-08-08T10:33:41;99361.03;;;22.71;34.59
76594;BME280;65482;50.240;14.302;2023-08-08T10:36:09;99364.50;;;22.54;33.82
76594;BME280;65482;50.240;14.302;2023-08-08T10:41:10;99354.03;;;22.24;34.27
76594;BME280;65482;50.240;14.302;2023-08-08T10:43:37;99349.22;;;22.26;35.34
76594;BME280;65482;50.240;14.302;2023-08-08T10:46:04;99349.34;;;22.48;34.76
76594;BME280;65482;50.240;14.302;2023-08-08T10:48:29;99342.03;;;22.60;35.94
76594;BME280;65482;50.240;14.302;2023-08-08T10:50:58;99330.13;;;22.73;35.85
76594;BME280;65482;50.240;14.302;2023-08-08T10:53:28;99337.56;;;22.83;36.24
76594;BME280;65482;50.240;14.302;2023-08-08T10:56:03;99330.28;;;22.83;36.81
76594;BME280;65482;50.240;14.302;2023-08-08T10:58:41;99327.78;;;22.77;36.94
76594;BME280;65482;50.240;14.302;2023-08-08T11:01:07;99324.28;;;22.76;36.03
76594;BME280;65482;50.240;14.302;2023-08-08T11:03:39;99320.84;;;22.64;36.45
76594;BME280;65482;50.240;14.302;2023-08-08T11:06:09;99321.03;;;22.74;36.08
76594;BME280;65482;50.240;14.302;2023-08-08T11:08:36;99317.19;;;22.70;36.23
76594;BME280;65482;50.240;14.302;2023-08-08T11:11:04;99320.19;;;22.91;37.20
76594;BME280;65482;50.240;14.302;2023-08-08T11:13:31;99309.28;;;22.63;36.60
76594;BME280;65482;50.240;14.302;2023-08-08T11:15:57;99306.59;;;22.47;36.14
76594;BME280;65482;50.240;14.302;2023-08-08T11:18:23;99314.06;;;22.28;37.70
76594;BME280;65482;50.240;14.302;2023-08-08T11:20:49;99302.91;;;22.36;37.25
76594;BME280;65482;50.240;14.302;2023-08-08T11:23:15;99306.03;;;22.78;36.74
76594;BME280;65482;50.240;14.302;2023-08-08T11:25:44;99296.38;;;22.99;36.09
76594;BME280;65482;50.240;14.302;2023-08-08T11:28:12;99297.63;;;23.09;35.86
76594;BME280;65482;50.240;14.302;2023-08-08T11:30:40;99294.13;;;23.08;36.54
76594;BME280;65482;50.240;14.302;2023-08-08T11:33:06;99288.47;;;23.10;35.00
76594;BME280;65482;50.240;14.302;2023-08-08T11:35:32;99284.00;;;22.98;34.55
76594;BME280;65482;50.240;14.302;2023-08-08T11:38:00;99289.88;;;22.95;34.15
76594;BME280;65482;50.240;14.302;2023-08-08T11:40:28;99283.44;;;22.79;34.70
76594;BME280;65482;50.240;14.302;2023-08-08T11:42:55;99276.53;;;22.67;34.96
76594;BME280;65482;50.240;14.302;2023-08-08T11:45:23;99280.09;;;22.89;34.80
76594;BME280;65482;50.240;14.302;2023-08-08T11:47:54;99263.28;;;22.99;35.01
76594;BME280;65482;50.240;14.302;2023-08-08T11:50:21;99268.03;;;23.09;35.61
76594;BME280;65482;50.240;14.302;2023-08-08T11:52:51;99265.53;;;23.02;36.07
76594;BME280;65482;50.240;14.302;2023-08-08T11:55:18;99255.56;;;23.02;32.49
76594;BME280;65482;50.240;14.302;2023-08-08T11:57:48;99261.69;;;22.98;33.03
76594;BME280;65482;50.240;14.302;2023-08-08T12:00:14;99248.22;;;22.98;32.18
76594;BME280;65482;50.240;14.302;2023-08-08T12:02:42;99245.78;;;22.96;31.09
76594;BME280;65482;50.240;14.302;2023-08-08T12:05:13;99246.91;;;23.00;30.77
76594;BME280;65482;50.240;14.302;2023-08-08T12:07:42;99240.38;;;23.13;31.64
76594;BME280;65482;50.240;14.302;2023-08-08T12:10:20;99247.88;;;23.11;30.10
76594;BME280;65482;50.240;14.302;2023-08-08T12:12:52;99232.13;;;23.20;29.15
76594;BME280;65482;50.240;14.302;2023-08-08T12:15:19;99230.25;;;23.20;30.78
76594;BME280;65482;50.240;14.302;2023-08-08T12:17:45;99230.41;;;23.14;30.70
76594;BME280;65482;50.240;14.302;2023-08-08T12:20:11;99227.28;;;23.00;30.82
76594;BME280;65482;50.240;14.302;2023-08-08T12:22:37;99226.13;;;22.96;30.07
76594;BME280;65482;50.240;14.302;2023-08-08T12:25:03;99228.81;;;22.96;28.97
76594;BME280;65482;50.240;14.302;2023-08-08T12:27:29;99221.75;;;23.07;30.12
76594;BME280;65482;50.240;14.302;2023-08-08T12:29:55;99216.69;;;23.32;28.68
76594;BME280;65482;50.240;14.302;2023-08-08T12:32:21;99224.16;;;23.52;28.96
76594;BME280;65482;50.240;14.302;2023-08-08T12:34:50;99221.88;;;23.66;27.83
76594;BME280;65482;50.240;14.302;2023-08-08T12:37:16;99210.81;;;23.62;28.22
76594;BME280;65482;50.240;14.302;2023-08-08T12:39:42;99218.81;;;23.57;27.63
76594;BME280;65482;50.240;14.302;2023-08-08T12:42:07;99219.91;;;23.56;28.42
76594;BME280;65482;50.240;14.302;2023-08-08T12:44:33;99225.06;;;23.63;28.61
76594;BME280;65482;50.240;14.302;2023-08-08T12:46:59;99222.75;;;23.72;28.39
76594;BME280;65482;50.240;14.302;2023-08-08T12:49:24;99224.63;;;23.71;28.79